sensor_id;sensor_type;location;lat;lon;timestamp;temperature;humidity
57242;DHT22;43095;53.302;5.786;2024-02-21T00:01:53;8.40;99.90
57242;DHT22;43095;53.302;5.786;2024-02-21T00:04:20;8.40;99.90
57242;DHT22;43095;53.302;5.786;2024-02-21T00:06:48;8.40;99.90
57242;DHT22;43095;53.302;5.786;2024-02-21T00:09:15;8.40;99.90
57242;DHT22;43095;53.302;5.786;2024-02-21T00:11:42;8.40;99.90
57242;DHT22;43095;53.302;5.786;2024-02-21T00:14:09;8.30;99.90
57242;DHT22;43095;53.302;5.786;2024-02-21T00:16:37;8.30;99.90
57242;DHT22;43095;53.302;5.786;2024-02-21T00:19:04;8.30;99.90
57242;DHT22;43095;53.302;5.786;2024-02-21T00:21:31;8.30;99.90
57242;DHT22;43095;53.302;5.786;2024-02-21T00:23:59;8.30;99.90
57242;DHT22;43095;53.302;5.786;2024-02-21T00:26:26;8.30;99.90
57242;DHT22;43095;53.302;5.786;2024-02-21T00:28:57;8.30;99.90
57242;DHT22;43095;53.302;5.786;2024-02-21T00:31:24;8.30;99.90
57242;DHT22;43095;53.302;5.786;2024-02-21T00:33:51;8.30;99.90
57242;DHT22;43095;53.302;5.786;2024-02-21T00:36:19;8.30;99.90
57242;DHT22;43095;53.302;5.786;2024-02-21T00:38:46;8.30;99.90
57242;DHT22;43095;53.302;5.786;2024-02-21T00:41:13;8.30;99.90
57242;DHT22;43095;53.302;5.786;2024-02-21T00:43:41;8.30;99.90
57242;DHT22;43095;53.302;5.786;2024-02-21T00:46:09;8.40;99.90
57242;DHT22;43095;53.302;5.786;2024-02-21T00:48:36;8.30;99.90
57242;DHT22;43095;53.302;5.786;2024-02-21T00:51:04;8.40;99.90
57242;DHT22;43095;53.302;5.786;2024-02-21T00:53:31;8.40;99.90
57242;DHT22;43095;53.302;5.786;2024-02-21T00:55:58;8.40;99.90
57242;DHT22;43095;53.302;5.786;2024-02-21T00:58:26;8.40;99.90
57242;DHT22;43095;53.302;5.786;2024-02-21T01:00:54;8.40;99.90
57242;DHT22;43095;53.302;5.786;2024-02-21T01:03:21;8.40;99.90
57242;DHT22;43095;53.302;5.786;2024-02-21T01:05:48;8.40;99.90
57242;DHT22;43095;53.302;5.786;2024-02-21T01:08:15;8.40;99.90
57242;DHT22;43095;53.302;5.786;2024-02-21T01:10:43;8.40;99.90
57242;DHT22;43095;53.302;5.786;2024-02-21T01:13:10;8.40;99.90
57242;DHT22;43095;53.302;5.786;2024-02-21T01:15:38;8.40;99.90
57242;DHT22;43095;53.302;5.786;2024-02-21T01:18:05;8.30;99.90
57242;DHT22;43095;53.302;5.786;2024-02-21T01:20:33;8.30;99.90
57242;DHT22;43095;53.302;5.786;2024-02-21T01:23:01;8.30;99.90
57242;DHT22;43095;53.302;5.786;2024-02-21T01:25:28;8.30;99.90
57242;DHT22;43095;53.302;5.786;2024-02-21T01:27:55;8.30;99.90
57242;DHT22;43095;53.302;5.786;2024-02-21T01:30:23;8.30;99.90
57242;DHT22;43095;53.302;5.786;2024-02-21T01:32:50;8.30;99.90
57242;DHT22;43095;53.302;5.786;2024-02-21T01:35:17;8.30;99.90
57242;DHT22;43095;53.302;5.786;2024-02-21T01:37:45;8.20;99.90
57242;DHT22;43095;53.302;5.786;2024-02-21T01:40:12;8.20;99.90
57242;DHT22;43095;53.302;5.786;2024-02-21T01:42:40;8.20;99.90
57242;DHT22;43095;53.302;5.786;2024-02-21T01:45:08;8.20;99.90
57242;DHT22;43095;53.302;5.786;2024-02-21T01:47:37;8.20;99.90
57242;DHT22;43095;53.302;5.786;2024-02-21T01:50:04;8.20;99.90
57242;DHT22;43095;53.302;5.786;2024-02-21T01:52:33;8.20;99.90
57242;DHT22;43095;53.302;5.786;2024-02-21T01:55:03;8.20;99.90
57242;DHT22;43095;53.302;5.786;2024-02-21T01:57:30;8.20;99.90
57242;DHT22;43095;53.302;5.786;2024-02-21T01:59:58;8.30;99.90
57242;DHT22;43095;53.302;5.786;2024-02-21T02:02:25;8.20;99.90
57242;DHT22;43095;53.302;5.786;2024-02-21T02:04:53;8.20;99.90
57242;DHT22;43095;53.302;5.786;2024-02-21T02:07:21;8.20;99.90
57242;DHT22;43095;53.302;5.786;2024-02-21T02:09:48;8.30;99.90
57242;DHT22;43095;53.302;5.786;2024-02-21T02:12:16;8.20;99.90
57242;DHT22;43095;53.302;5.786;2024-02-21T02:14:43;8.20;99.90
57242;DHT22;43095;53.302;5.786;2024-02-21T02:17:12;8.20;99.90
57242;DHT22;43095;53.302;5.786;2024-02-21T02:19:39;8.20;99.90
57242;DHT22;43095;53.302;5.786;2024-02-21T02:22:11;8.20;99.90
57242;DHT22;43095;53.302;5.786;2024-02-21T02:24:42;8.20;99.90
57242;DHT22;43095;53.302;5.786;2024-02-21T02:27:09;8.20;99.90
57242;DHT22;43095;53.302;5.786;2024-02-21T02:29:36;8.20;99.90
57242;DHT22;43095;53.302;5.786;2024-02-21T02:32:04;8.20;99.90
57242;DHT22;43095;53.302;5.786;2024-02-21T02:34:31;8.30;99.90
57242;DHT22;43095;53.302;5.786;2024-02-21T02:36:59;8.20;99.90
57242;DHT22;43095;53.302;5.786;2024-02-21T02:39:26;8.20;99.90
57242;DHT22;43095;53.302;5.786;2024-02-21T02:41:53;8.20;99.90
57242;DHT22;43095;53.302;5.786;2024-02-21T02:44:20;8.20;99.90
57242;DHT22;43095;53.302;5.786;2024-02-21T02:46:48;8.20;99.90
57242;DHT22;43095;53.302;5.786;2024-02-21T02:49:15;8.20;99.90
57242;DHT22;43095;53.302;5.786;2024-02-21T02:51:43;8.10;99.90
57242;DHT22;43095;53.302;5.786;2024-02-21T02:54:11;8.10;99.90
57242;DHT22;43095;53.302;5.786;2024-02-21T02:56:38;8.10;99.90
57242;DHT22;43095;53.302;5.786;2024-02-21T02:59:05;8.10;99.90
57242;DHT22;43095;53.302;5.786;2024-02-21T03:01:36;8.00;99.90
57242;DHT22;43095;53.302;5.786;2024-02-21T03:04:03;8.10;99.90
57242;DHT22;43095;53.302;5.786;2024-02-21T03:06:31;8.00;99.90
57242;DHT22;43095;53.302;5.786;2024-02-21T03:08:58;8.00;99.90
57242;DHT22;43095;53.302;5.786;2024-02-21T03:11:27;8.00;99.90
57242;DHT22;43095;53.302;5.786;2024-02-21T03:13:56;8.00;99.90
57242;DHT22;43095;53.302;5.786;2024-02-21T03:16:24;8.00;99.90
57242;DHT22;43095;53.302;5.786;2024-02-21T03:18:51;8.00;99.90
57242;DHT22;43095;53.302;5.786;2024-02-21T03:21:19;8.00;99.90
57242;DHT22;43095;53.302;5.786;2024-02-21T03:23:46;8.10;99.90
57242;DHT22;43095;53.302;5.786;2024-02-21T03:26:13;8.10;99.90
57242;DHT22;43095;53.302;5.786;2024-02-21T03:28:44;8.10;99.90
57242;DHT22;43095;53.302;5.786;2024-02-21T03:31:13;8.10;99.90
57242;DHT22;43095;53.302;5.786;2024-02-21T03:33:42;8.10;99.90
57242;DHT22;43095;53.302;5.786;2024-02-21T03:36:14;8.10;99.90
57242;DHT22;43095;53.302;5.786;2024-02-21T03:38:42;8.10;99.90
57242;DHT22;43095;53.302;5.786;2024-02-21T03:41:09;8.10;99.90
57242;DHT22;43095;53.302;5.786;2024-02-21T03:43:40;8.10;99.90
57242;DHT22;43095;53.302;5.786;2024-02-21T03:46:07;8.10;99.90
57242;DHT22;43095;53.302;5.786;2024-02-21T03:48:36;8.10;99.90
57242;DHT22;43095;53.302;5.786;2024-02-21T03:51:03;8.10;99.90
57242;DHT22;43095;53.302;5.786;2024-02-21T03:53:31;8.10;99.90
57242;DHT22;43095;53.302;5.786;2024-02-21T03:56:03;8.10;99.90
57242;DHT22;43095;53.302;5.786;2024-02-21T03:58:31;8.10;99.90
57242;DHT22;43095;53.302;5.786;2024-02-21T04:01:02;8.20;99.90
57242;DHT22;43095;53.302;5.786;2024-02-21T04:03:30;8.10;99.90
57242;DHT22;43095;53.302;5.786;2024-02-21T04:05:58;8.10;99.90
57242;DHT22;43095;53.302;5.786;2024-02-21T04:08:25;8.20;99.90
57242;DHT22;43095;53.302;5.786;2024-02-21T04:10:52;8.20;99.90
57242;DHT22;43095;53.302;5.786;2024-02-21T04:13:20;8.10;99.90
57242;DHT22;43095;53.302;5.786;2024-02-21T04:15:49;8.10;99.90
57242;DHT22;43095;53.302;5.786;2024-02-21T04:18:16;8.20;99.90
57242;DHT22;43095;53.302;5.786;2024-02-21T04:20:43;8.10;99.90
57242;DHT22;43095;53.302;5.786;2024-02-21T04:23:11;8.10;99.90
57242;DHT22;43095;53.302;5.786;2024-02-21T04:25:38;8.10;99.90
57242;DHT22;43095;53.302;5.786;2024-02-21T04:28:05;8.10;99.90
57242;DHT22;43095;53.302;5.786;2024-02-21T04:30:32;8.10;99.90
57242;DHT22;43095;53.302;5.786;2024-02-21T04:33:00;8.20;99.90
57242;DHT22;43095;53.302;5.786;2024-02-21T04:35:27;8.20;99.90
57242;DHT22;43095;53.302;5.786;2024-02-21T04:37:55;8.20;99.90
57242;DHT22;43095;53.302;5.786;2024-02-21T04:40:22;8.20;99.90
57242;DHT22;43095;53.302;5.786;2024-02-21T04:42:49;8.20;99.90
57242;DHT22;43095;53.302;5.786;2024-02-21T04:45:16;8.30;99.90
57242;DHT22;43095;53.302;5.786;2024-02-21T04:47:44;8.20;99.90
57242;DHT22;43095;53.302;5.786;2024-02-21T04:50:11;8.30;99.90
57242;DHT22;43095;53.302;5.786;2024-02-21T04:52:40;8.30;99.90
57242;DHT22;43095;53.302;5.786;2024-02-21T04:55:08;8.30;99.90
57242;DHT22;43095;53.302;5.786;2024-02-21T04:57:35;8.30;99.90
57242;DHT22;43095;53.302;5.786;2024-02-21T05:00:03;8.20;99.90
57242;DHT22;43095;53.302;5.786;2024-02-21T05:02:31;8.20;99.90
57242;DHT22;43095;53.302;5.786;2024-02-21T05:04:58;8.20;99.90
57242;DHT22;43095;53.302;5.786;2024-02-21T05:07:26;8.20;99.90
57242;DHT22;43095;53.302;5.786;2024-02-21T05:09:53;8.20;99.90
57242;DHT22;43095;53.302;5.786;2024-02-21T05:12:20;8.20;99.90
57242;DHT22;43095;53.302;5.786;2024-02-21T05:14:47;8.10;99.90
57242;DHT22;43095;53.302;5.786;2024-02-21T05:17:15;8.10;99.90
57242;DHT22;43095;53.302;5.786;2024-02-21T05:19:42;8.10;99.90
57242;DHT22;43095;53.302;5.786;2024-02-21T05:22:10;8.10;99.90
57242;DHT22;43095;53.302;5.786;2024-02-21T05:24:39;8.10;99.90
57242;DHT22;43095;53.302;5.786;2024-02-21T05:27:07;8.10;99.90
57242;DHT22;43095;53.302;5.786;2024-02-21T05:29:34;8.10;99.90
57242;DHT22;43095;53.302;5.786;2024-02-21T05:32:01;8.10;99.90
57242;DHT22;43095;53.302;5.786;2024-02-21T05:34:29;8.00;99.90
57242;DHT22;43095;53.302;5.786;2024-02-21T05:36:57;8.00;99.90
57242;DHT22;43095;53.302;5.786;2024-02-21T05:39:26;8.00;99.90
57242;DHT22;43095;53.302;5.786;2024-02-21T05:41:56;8.00;99.90
57242;DHT22;43095;53.302;5.786;2024-02-21T05:44:23;8.00;99.90
57242;DHT22;43095;53.302;5.786;2024-02-21T05:46:50;8.00;99.90
57242;DHT22;43095;53.302;5.786;2024-02-21T05:49:17;8.00;99.90
57242;DHT22;43095;53.302;5.786;2024-02-21T05:51:45;8.00;99.90
57242;DHT22;43095;53.302;5.786;2024-02-21T05:54:12;8.00;99.90
57242;DHT22;43095;53.302;5.786;2024-02-21T05:56:44;8.00;99.90
57242;DHT22;43095;53.302;5.786;2024-02-21T05:59:12;8.00;99.90
57242;DHT22;43095;53.302;5.786;2024-02-21T06:01:40;8.00;99.90
57242;DHT22;43095;53.302;5.786;2024-02-21T06:04:07;8.00;99.90
57242;DHT22;43095;53.302;5.786;2024-02-21T06:06:35;8.00;99.90
57242;DHT22;43095;53.302;5.786;2024-02-21T06:09:02;8.00;99.90
57242;DHT22;43095;53.302;5.786;2024-02-21T06:11:30;8.00;99.90
57242;DHT22;43095;53.302;5.786;2024-02-21T06:13:57;8.00;99.90
57242;DHT22;43095;53.302;5.786;2024-02-21T06:16:25;8.00;99.90
57242;DHT22;43095;53.302;5.786;2024-02-21T06:18:52;8.00;99.90
57242;DHT22;43095;53.302;5.786;2024-02-21T06:21:19;8.00;99.90
57242;DHT22;43095;53.302;5.786;2024-02-21T06:23:46;8.00;99.90
57242;DHT22;43095;53.302;5.786;2024-02-21T06:26:14;8.00;99.90
57242;DHT22;43095;53.302;5.786;2024-02-21T06:28:41;8.00;99.90
57242;DHT22;43095;53.302;5.786;2024-02-21T06:31:09;8.00;99.90
57242;DHT22;43095;53.302;5.786;2024-02-21T06:33:37;8.00;99.90
57242;DHT22;43095;53.302;5.786;2024-02-21T06:36:04;8.00;99.90
57242;DHT22;43095;53.302;5.786;2024-02-21T06:38:32;8.10;99.90
57242;DHT22;43095;53.302;5.786;2024-02-21T06:41:01;8.10;99.90
57242;DHT22;43095;53.302;5.786;2024-02-21T06:43:29;8.10;99.90
57242;DHT22;43095;53.302;5.786;2024-02-21T06:45:57;8.10;99.90
57242;DHT22;43095;53.302;5.786;2024-02-21T06:48:24;8.10;99.90
57242;DHT22;43095;53.302;5.786;2024-02-21T06:50:51;8.10;99.90
57242;DHT22;43095;53.302;5.786;2024-02-21T06:53:19;8.10;99.90
57242;DHT22;43095;53.302;5.786;2024-02-21T06:55:46;8.10;99.90
57242;DHT22;43095;53.302;5.786;2024-02-21T06:58:13;8.00;99.90
57242;DHT22;43095;53.302;5.786;2024-02-21T07:00:42;8.00;99.90
57242;DHT22;43095;53.302;5.786;2024-02-21T07:03:10;8.00;99.90
57242;DHT22;43095;53.302;5.786;2024-02-21T07:05:37;8.00;99.90
57242;DHT22;43095;53.302;5.786;2024-02-21T07:08:05;8.00;99.90
57242;DHT22;43095;53.302;5.786;2024-02-21T07:10:32;8.00;99.90
57242;DHT22;43095;53.302;5.786;2024-02-21T07:13:00;8.00;99.90
57242;DHT22;43095;53.302;5.786;2024-02-21T07:15:27;8.00;99.90
57242;DHT22;43095;53.302;5.786;2024-02-21T07:17:56;8.00;99.90
57242;DHT22;43095;53.302;5.786;2024-02-21T07:20:24;8.00;99.90
57242;DHT22;43095;53.302;5.786;2024-02-21T07:22:51;8.00;99.90
57242;DHT22;43095;53.302;5.786;2024-02-21T07:25:18;8.00;99.90
57242;DHT22;43095;53.302;5.786;2024-02-21T07:27:46;8.00;99.90
57242;DHT22;43095;53.302;5.786;2024-02-21T07:30:13;8.00;99.90
57242;DHT22;43095;53.302;5.786;2024-02-21T07:32:43;8.00;99.90
57242;DHT22;43095;53.302;5.786;2024-02-21T07:35:11;8.00;99.90
57242;DHT22;43095;53.302;5.786;2024-02-21T07:37:39;8.00;99.90
57242;DHT22;43095;53.302;5.786;2024-02-21T07:40:15;8.00;99.90
57242;DHT22;43095;53.302;5.786;2024-02-21T07:42:43;8.10;99.90
57242;DHT22;43095;53.302;5.786;2024-02-21T07:45:17;8.10;99.90
57242;DHT22;43095;53.302;5.786;2024-02-21T07:47:45;8.10;99.90
57242;DHT22;43095;53.302;5.786;2024-02-21T07:50:13;8.10;99.90
57242;DHT22;43095;53.302;5.786;2024-02-21T07:52:40;8.10;99.90
57242;DHT22;43095;53.302;5.786;2024-02-21T07:55:08;8.10;99.90
57242;DHT22;43095;53.302;5.786;2024-02-21T07:57:37;8.10;99.90
57242;DHT22;43095;53.302;5.786;2024-02-21T08:00:05;8.10;99.90
57242;DHT22;43095;53.302;5.786;2024-02-21T08:02:38;8.10;99.90
57242;DHT22;43095;53.302;5.786;2024-02-21T08:05:05;8.10;99.90
57242;DHT22;43095;53.302;5.786;2024-02-21T08:07:33;8.10;99.90
57242;DHT22;43095;53.302;5.786;2024-02-21T08:10:00;8.10;99.90
57242;DHT22;43095;53.302;5.786;2024-02-21T08:12:28;8.10;99.90
57242;DHT22;43095;53.302;5.786;2024-02-21T08:14:55;8.10;99.90
57242;DHT22;43095;53.302;5.786;2024-02-21T08:17:22;8.20;99.90
57242;DHT22;43095;53.302;5.786;2024-02-21T08:19:50;8.20;99.90
57242;DHT22;43095;53.302;5.786;2024-02-21T08:22:17;8.20;99.90
57242;DHT22;43095;53.302;5.786;2024-02-21T08:24:44;8.20;99.90
57242;DHT22;43095;53.302;5.786;2024-02-21T08:27:12;8.20;99.90
57242;DHT22;43095;53.302;5.786;2024-02-21T08:29:39;8.20;99.90
57242;DHT22;43095;53.302;5.786;2024-02-21T08:32:06;8.20;99.90
57242;DHT22;43095;53.302;5.786;2024-02-21T08:34:34;8.20;99.90
57242;DHT22;43095;53.302;5.786;2024-02-21T08:37:01;8.20;99.90
57242;DHT22;43095;53.302;5.786;2024-02-21T08:39:28;8.20;99.90
57242;DHT22;43095;53.302;5.786;2024-02-21T08:41:57;8.20;99.90
57242;DHT22;43095;53.302;5.786;2024-02-21T08:44:28;8.20;99.90
57242;DHT22;43095;53.302;5.786;2024-02-21T08:46:55;8.20;99.90
57242;DHT22;43095;53.302;5.786;2024-02-21T08:49:24;8.20;99.90
57242;DHT22;43095;53.302;5.786;2024-02-21T08:52:00;8.20;99.90
57242;DHT22;43095;53.302;5.786;2024-02-21T08:54:29;8.20;99.90
57242;DHT22;43095;53.302;5.786;2024-02-21T08:56:57;8.20;99.90
57242;DHT22;43095;53.302;5.786;2024-02-21T08:59:24;8.20;99.90
57242;DHT22;43095;53.302;5.786;2024-02-21T09:01:53;8.20;99.90
57242;DHT22;43095;53.302;5.786;2024-02-21T09:04:20;8.20;99.90
57242;DHT22;43095;53.302;5.786;2024-02-21T09:06:48;8.20;99.90
57242;DHT22;43095;53.302;5.786;2024-02-21T09:09:15;8.20;99.90
57242;DHT22;43095;53.302;5.786;2024-02-21T09:11:42;8.20;99.90
57242;DHT22;43095;53.302;5.786;2024-02-21T09:14:10;8.30;99.90
57242;DHT22;43095;53.302;5.786;2024-02-21T09:16:37;8.30;99.90
57242;DHT22;43095;53.302;5.786;2024-02-21T09:19:04;8.30;99.90
57242;DHT22;43095;53.302;5.786;2024-02-21T09:21:32;8.30;99.90
57242;DHT22;43095;53.302;5.786;2024-02-21T09:23:59;8.30;99.90
57242;DHT22;43095;53.302;5.786;2024-02-21T09:26:27;8.30;99.90
57242;DHT22;43095;53.302;5.786;2024-02-21T09:28:54;8.40;99.90
57242;DHT22;43095;53.302;5.786;2024-02-21T09:31:21;8.40;99.90
57242;DHT22;43095;53.302;5.786;2024-02-21T09:33:48;8.40;99.90
57242;DHT22;43095;53.302;5.786;2024-02-21T09:36:16;8.40;99.90
57242;DHT22;43095;53.302;5.786;2024-02-21T09:38:43;8.40;99.90
57242;DHT22;43095;53.302;5.786;2024-02-21T09:41:42;8.40;99.90
57242;DHT22;43095;53.302;5.786;2024-02-21T09:44:13;8.50;99.90
57242;DHT22;43095;53.302;5.786;2024-02-21T09:49:34;8.50;99.90
57242;DHT22;43095;53.302;5.786;2024-02-21T09:52:05;8.50;99.90
57242;DHT22;43095;53.302;5.786;2024-02-21T09:54:34;8.50;99.90
57242;DHT22;43095;53.302;5.786;2024-02-21T09:57:03;8.50;99.90
57242;DHT22;43095;53.302;5.786;2024-02-21T09:59:32;8.50;99.90
57242;DHT22;43095;53.302;5.786;2024-02-21T10:01:59;8.60;99.90
57242;DHT22;43095;53.302;5.786;2024-02-21T10:04:30;8.60;99.90
57242;DHT22;43095;53.302;5.786;2024-02-21T10:06:59;8.60;99.90
57242;DHT22;43095;53.302;5.786;2024-02-21T10:09:28;8.60;99.90
57242;DHT22;43095;53.302;5.786;2024-02-21T10:12:10;8.60;99.90
57242;DHT22;43095;53.302;5.786;2024-02-21T10:14:40;8.60;99.90
57242;DHT22;43095;53.302;5.786;2024-02-21T10:17:08;8.60;99.90
57242;DHT22;43095;53.302;5.786;2024-02-21T10:19:41;8.60;99.90
57242;DHT22;43095;53.302;5.786;2024-02-21T10:22:09;8.60;99.90
57242;DHT22;43095;53.302;5.786;2024-02-21T10:24:37;8.60;99.90
57242;DHT22;43095;53.302;5.786;2024-02-21T10:27:07;8.60;99.90
57242;DHT22;43095;53.302;5.786;2024-02-21T10:29:36;8.70;99.90
57242;DHT22;43095;53.302;5.786;2024-02-21T10:32:07;8.60;99.90
57242;DHT22;43095;53.302;5.786;2024-02-21T10:34:36;8.70;99.90
57242;DHT22;43095;53.302;5.786;2024-02-21T10:37:05;8.70;99.90
57242;DHT22;43095;53.302;5.786;2024-02-21T10:39:37;8.70;99.90
57242;DHT22;43095;53.302;5.786;2024-02-21T10:42:06;8.70;99.90
57242;DHT22;43095;53.302;5.786;2024-02-21T10:44:39;8.70;99.90
57242;DHT22;43095;53.302;5.786;2024-02-21T10:47:09;8.80;99.90
57242;DHT22;43095;53.302;5.786;2024-02-21T10:49:40;8.80;99.90
57242;DHT22;43095;53.302;5.786;2024-02-21T10:52:14;8.80;99.90
57242;DHT22;43095;53.302;5.786;2024-02-21T10:54:47;8.90;99.90
57242;DHT22;43095;53.302;5.786;2024-02-21T10:57:32;8.90;99.90
57242;DHT22;43095;53.302;5.786;2024-02-21T11:00:00;8.90;99.90
57242;DHT22;43095;53.302;5.786;2024-02-21T11:02:28;8.90;99.90
57242;DHT22;43095;53.302;5.786;2024-02-21T11:04:59;8.90;99.90
57242;DHT22;43095;53.302;5.786;2024-02-21T11:07:31;8.80;99.90
57242;DHT22;43095;53.302;5.786;2024-02-21T11:10:00;8.80;99.90
57242;DHT22;43095;53.302;5.786;2024-02-21T11:12:28;8.80;99.90
57242;DHT22;43095;53.302;5.786;2024-02-21T11:15:08;8.80;99.90
57242;DHT22;43095;53.302;5.786;2024-02-21T11:17:36;8.80;99.90
57242;DHT22;43095;53.302;5.786;2024-02-21T11:20:16;8.80;99.90
57242;DHT22;43095;53.302;5.786;2024-02-21T11:22:43;8.80;99.90
57242;DHT22;43095;53.302;5.786;2024-02-21T11:25:11;8.80;99.90
57242;DHT22;43095;53.302;5.786;2024-02-21T11:27:39;8.80;99.90
57242;DHT22;43095;53.302;5.786;2024-02-21T11:30:12;8.80;99.90
57242;DHT22;43095;53.302;5.786;2024-02-21T11:32:41;8.80;99.90
57242;DHT22;43095;53.302;5.786;2024-02-21T11:35:19;8.80;99.90
57242;DHT22;43095;53.302;5.786;2024-02-21T11:37:48;8.80;99.90
57242;DHT22;43095;53.302;5.786;2024-02-21T11:40:15;8.80;99.90
57242;DHT22;43095;53.302;5.786;2024-02-21T11:42:42;8.80;99.90
57242;DHT22;43095;53.302;5.786;2024-02-21T11:45:10;8.80;99.90
57242;DHT22;43095;53.302;5.786;2024-02-21T11:47:37;8.80;99.90
57242;DHT22;43095;53.302;5.786;2024-02-21T11:50:12;8.80;99.90
57242;DHT22;43095;53.302;5.786;2024-02-21T11:52:42;8.80;99.90
57242;DHT22;43095;53.302;5.786;2024-02-21T11:55:10;8.80;99.90
57242;DHT22;43095;53.302;5.786;2024-02-21T11:57:38;8.80;99.90
57242;DHT22;43095;53.302;5.786;2024-02-21T12:00:15;8.80;99.90
57242;DHT22;43095;53.302;5.786;2024-02-21T12:02:44;8.80;99.90
57242;DHT22;43095;53.302;5.786;2024-02-21T12:05:13;8.80;99.90
57242;DHT22;43095;53.302;5.786;2024-02-21T12:07:41;8.80;99.90
57242;DHT22;43095;53.302;5.786;2024-02-21T12:10:12;8.80;99.90
57242;DHT22;43095;53.302;5.786;2024-02-21T12:12:40;8.80;99.90
57242;DHT22;43095;53.302;5.786;2024-02-21T12:15:08;8.90;99.90
57242;DHT22;43095;53.302;5.786;2024-02-21T12:17:36;8.90;99.90
57242;DHT22;43095;53.302;5.786;2024-02-21T12:20:05;8.90;99.90
57242;DHT22;43095;53.302;5.786;2024-02-21T12:22:48;8.90;99.90
57242;DHT22;43095;53.302;5.786;2024-02-21T12:25:22;8.90;99.90
57242;DHT22;43095;53.302;5.786;2024-02-21T12:27:50;8.90;99.90
57242;DHT22;43095;53.302;5.786;2024-02-21T12:30:18;8.90;99.90
57242;DHT22;43095;53.302;5.786;2024-02-21T12:32:48;8.90;99.90
57242;DHT22;43095;53.302;5.786;2024-02-21T12:35:16;8.90;99.90
57242;DHT22;43095;53.302;5.786;2024-02-21T12:37:45;8.90;99.90
57242;DHT22;43095;53.302;5.786;2024-02-21T12:40:12;8.90;99.90
57242;DHT22;43095;53.302;5.786;2024-02-21T12:42:41;8.90;99.90
57242;DHT22;43095;53.302;5.786;2024-02-21T12:45:09;8.90;99.90
57242;DHT22;43095;53.302;5.786;2024-02-21T12:47:36;8.90;99.90
57242;DHT22;43095;53.302;5.786;2024-02-21T12:50:04;8.90;99.90
57242;DHT22;43095;53.302;5.786;2024-02-21T12:52:34;8.90;99.90
57242;DHT22;43095;53.302;5.786;2024-02-21T12:55:02;8.80;99.90
57242;DHT22;43095;53.302;5.786;2024-02-21T12:57:30;8.90;99.90
57242;DHT22;43095;53.302;5.786;2024-02-21T12:59:57;8.90;99.90
57242;DHT22;43095;53.302;5.786;2024-02-21T13:02:26;8.90;99.90
57242;DHT22;43095;53.302;5.786;2024-02-21T13:04:54;8.90;99.90
57242;DHT22;43095;53.302;5.786;2024-02-21T13:07:21;8.90;99.90
57242;DHT22;43095;53.302;5.786;2024-02-21T13:09:48;8.90;99.90
57242;DHT22;43095;53.302;5.786;2024-02-21T13:12:16;8.90;99.90
57242;DHT22;43095;53.302;5.786;2024-02-21T13:14:43;9.00;99.90
57242;DHT22;43095;53.302;5.786;2024-02-21T13:17:11;9.00;99.90
57242;DHT22;43095;53.302;5.786;2024-02-21T13:19:39;9.00;99.70
57242;DHT22;43095;53.302;5.786;2024-02-21T13:22:06;9.00;99.60
57242;DHT22;43095;53.302;5.786;2024-02-21T13:24:34;9.00;99.10
57242;DHT22;43095;53.302;5.786;2024-02-21T13:27:01;9.00;99.10
57242;DHT22;43095;53.302;5.786;2024-02-21T13:29:30;9.00;98.90
57242;DHT22;43095;53.302;5.786;2024-02-21T13:31:58;9.00;99.00
57242;DHT22;43095;53.302;5.786;2024-02-21T13:34:25;9.00;98.60
57242;DHT22;43095;53.302;5.786;2024-02-21T13:36:53;9.00;98.50
57242;DHT22;43095;53.302;5.786;2024-02-21T13:39:20;9.00;98.40
57242;DHT22;43095;53.302;5.786;2024-02-21T13:41:48;9.00;98.20
57242;DHT22;43095;53.302;5.786;2024-02-21T13:44:15;9.00;97.90
57242;DHT22;43095;53.302;5.786;2024-02-21T13:46:43;9.00;97.70
57242;DHT22;43095;53.302;5.786;2024-02-21T13:49:10;9.00;98.00
57242;DHT22;43095;53.302;5.786;2024-02-21T13:51:37;9.00;97.90
57242;DHT22;43095;53.302;5.786;2024-02-21T13:54:05;9.00;97.60
57242;DHT22;43095;53.302;5.786;2024-02-21T13:56:37;9.00;97.60
57242;DHT22;43095;53.302;5.786;2024-02-21T13:59:04;8.90;97.50
57242;DHT22;43095;53.302;5.786;2024-02-21T14:01:32;8.90;97.30
57242;DHT22;43095;53.302;5.786;2024-02-21T14:04:00;8.90;97.20
57242;DHT22;43095;53.302;5.786;2024-02-21T14:06:27;8.90;97.00
57242;DHT22;43095;53.302;5.786;2024-02-21T14:08:54;8.90;97.10
57242;DHT22;43095;53.302;5.786;2024-02-21T14:11:22;8.90;97.00
57242;DHT22;43095;53.302;5.786;2024-02-21T14:13:50;8.90;96.90
57242;DHT22;43095;53.302;5.786;2024-02-21T14:16:18;8.90;96.90
57242;DHT22;43095;53.302;5.786;2024-02-21T14:18:45;8.90;96.90
57242;DHT22;43095;53.302;5.786;2024-02-21T14:21:13;8.90;96.70
57242;DHT22;43095;53.302;5.786;2024-02-21T14:23:40;8.90;96.80
57242;DHT22;43095;53.302;5.786;2024-02-21T14:26:07;8.90;96.90
57242;DHT22;43095;53.302;5.786;2024-02-21T14:28:35;8.90;96.70
57242;DHT22;43095;53.302;5.786;2024-02-21T14:31:03;8.80;96.50
57242;DHT22;43095;53.302;5.786;2024-02-21T14:33:32;8.80;96.60
57242;DHT22;43095;53.302;5.786;2024-02-21T14:36:00;8.80;96.40
57242;DHT22;43095;53.302;5.786;2024-02-21T14:38:30;8.80;96.60
57242;DHT22;43095;53.302;5.786;2024-02-21T14:40:57;8.80;96.50
57242;DHT22;43095;53.302;5.786;2024-02-21T14:43:24;8.80;96.50
57242;DHT22;43095;53.302;5.786;2024-02-21T14:45:53;8.80;96.30
57242;DHT22;43095;53.302;5.786;2024-02-21T14:48:21;8.80;96.40
57242;DHT22;43095;53.302;5.786;2024-02-21T14:50:48;8.80;96.50
57242;DHT22;43095;53.302;5.786;2024-02-21T14:53:16;8.70;96.20
57242;DHT22;43095;53.302;5.786;2024-02-21T14:55:44;8.80;96.30
57242;DHT22;43095;53.302;5.786;2024-02-21T14:58:11;8.80;96.30
57242;DHT22;43095;53.302;5.786;2024-02-21T15:00:39;8.80;96.40
57242;DHT22;43095;53.302;5.786;2024-02-21T15:03:06;8.70;96.40
57242;DHT22;43095;53.302;5.786;2024-02-21T15:05:34;8.70;96.50
57242;DHT22;43095;53.302;5.786;2024-02-21T15:08:02;8.70;96.60
57242;DHT22;43095;53.302;5.786;2024-02-21T15:10:30;8.70;96.80
57242;DHT22;43095;53.302;5.786;2024-02-21T15:12:58;8.70;96.90
57242;DHT22;43095;53.302;5.786;2024-02-21T15:15:25;8.70;97.00
57242;DHT22;43095;53.302;5.786;2024-02-21T15:17:52;8.70;97.10
57242;DHT22;43095;53.302;5.786;2024-02-21T15:20:20;8.70;97.20
57242;DHT22;43095;53.302;5.786;2024-02-21T15:22:47;8.60;97.30
57242;DHT22;43095;53.302;5.786;2024-02-21T15:25:15;8.60;97.50
57242;DHT22;43095;53.302;5.786;2024-02-21T15:27:46;8.60;97.50
57242;DHT22;43095;53.302;5.786;2024-02-21T15:30:14;8.60;97.60
57242;DHT22;43095;53.302;5.786;2024-02-21T15:32:42;8.60;97.70
57242;DHT22;43095;53.302;5.786;2024-02-21T15:35:12;8.60;97.90
57242;DHT22;43095;53.302;5.786;2024-02-21T15:37:40;8.60;98.10
57242;DHT22;43095;53.302;5.786;2024-02-21T15:40:08;8.50;98.30
57242;DHT22;43095;53.302;5.786;2024-02-21T15:42:36;8.50;98.50
57242;DHT22;43095;53.302;5.786;2024-02-21T15:45:04;8.50;98.80
57242;DHT22;43095;53.302;5.786;2024-02-21T15:47:32;8.40;99.10
57242;DHT22;43095;53.302;5.786;2024-02-21T15:49:59;8.40;99.30
57242;DHT22;43095;53.302;5.786;2024-02-21T15:52:28;8.40;99.60
57242;DHT22;43095;53.302;5.786;2024-02-21T15:54:55;8.40;99.90